createdAt,value
2022-09-17T00:01:58.526Z,100039.00
2022-09-17T00:06:53.227Z,99993.16
2022-09-17T00:11:46.648Z,99960.75
2022-09-17T00:16:43.524Z,100068.59
2022-09-17T00:21:36.867Z,99946.13
2022-09-17T00:26:33.404Z,99972.38
2022-09-17T00:31:27.798Z,99975.25
2022-09-17T00:36:21.857Z,99926.84
2022-09-17T00:41:15.054Z,100043.47
2022-09-17T00:46:21.246Z,99893.84
2022-09-17T00:51:19.740Z,100049.28
2022-09-17T00:56:20.090Z,100035.56
2022-09-17T01:01:15.271Z,100020.63
2022-09-17T01:06:19.049Z,99991.75
2022-09-17T01:11:30.406Z,100042.38
2022-09-17T01:16:32.773Z,99970.28
2022-09-17T01:21:43.416Z,100033.25
2022-09-17T01:27:19.068Z,99939.03
2022-09-17T01:32:20.289Z,100024.63
2022-09-17T01:37:17.089Z,99948.84
2022-09-17T01:42:18.913Z,99987.94
2022-09-17T01:47:22.470Z,99914.03
2022-09-17T01:52:17.002Z,100001.66
2022-09-17T01:57:15.571Z,100000.69
2022-09-17T02:02:14.723Z,99954.41
2022-09-17T02:07:20.662Z,99920.44
2022-09-17T02:12:22.335Z,99950.31
2022-09-17T02:17:23.598Z,99916.41
2022-09-17T02:22:25.258Z,99912.13
2022-09-17T02:27:25.968Z,99992.16
2022-09-17T02:32:19.251Z,99930.28
2022-09-17T02:37:14.658Z,99923.38
2022-09-17T02:42:25.210Z,99821.25
2022-09-17T02:47:56.851Z,99931.25
2022-09-17T02:53:03.191Z,99960.22
2022-09-17T02:58:13.445Z,99979.41
2022-09-17T03:03:13.886Z,99937.56
2022-09-17T03:08:14.253Z,99940.97
2022-09-17T03:13:16.444Z,99872.72
2022-09-17T03:18:10.196Z,99831.44
2022-09-17T03:23:03.374Z,99804.09
2022-09-17T03:27:56.613Z,99852.25
2022-09-17T03:32:51.163Z,99821.03
2022-09-17T03:37:44.298Z,99912.22
2022-09-17T03:42:37.536Z,99771.78
2022-09-17T03:47:33.167Z,99885.19
2022-09-17T03:52:27.712Z,99802.09
2022-09-17T03:57:20.903Z,99849.47
2022-09-17T04:02:14.193Z,99896.63
2022-09-17T04:07:07.739Z,99807.72
2022-09-17T04:12:22.320Z,99792.13
2022-09-17T04:17:18.355Z,99827.44
2022-09-17T04:22:11.638Z,99881.94
2022-09-17T04:27:06.372Z,99863.03
2022-09-17T04:31:59.589Z,99765.84
2022-09-17T04:36:55.844Z,99875.78
2022-09-17T04:41:49.074Z,99880.03
2022-09-17T04:46:43.794Z,99796.63
2022-09-17T04:51:41.344Z,99868.16
2022-09-17T04:56:34.570Z,99871.63
2022-09-17T05:01:27.821Z,99871.88
2022-09-17T05:06:22.771Z,99871.75
2022-09-17T05:11:16.059Z,99872.63
2022-09-17T05:16:09.402Z,99857.66
2022-09-17T05:21:02.697Z,99800.31
2022-09-17T05:26:09.398Z,99852.25
2022-09-17T05:31:09.773Z,99812.69
2022-09-17T05:36:03.322Z,99873.81
2022-09-17T05:40:56.629Z,99817.69
2022-09-17T05:45:53.553Z,99809.78
2022-09-17T05:50:47.184Z,99857.84
2022-09-17T05:55:40.688Z,99808.16
2022-09-17T06:00:34.078Z,99839.00
2022-09-17T06:05:28.705Z,99803.50
2022-09-17T06:10:22.046Z,99862.03
2022-09-17T06:15:15.218Z,99850.63
2022-09-17T06:20:09.806Z,99750.50
2022-09-17T06:25:04.520Z,99775.19
2022-09-17T06:29:57.654Z,99822.66
2022-09-17T06:34:54.218Z,99836.56
2022-09-17T06:39:47.687Z,99846.13
2022-09-17T06:44:42.204Z,99841.66
2022-09-17T06:49:35.441Z,99853.13
2022-09-17T06:54:28.653Z,99876.81
2022-09-17T06:59:24.811Z,99857.63
2022-09-17T07:04:21.311Z,99794.09
2022-09-17T07:09:29.333Z,99831.47
2022-09-17T07:14:24.848Z,99795.53
2022-09-17T07:19:19.518Z,99706.09
2022-09-17T07:24:12.783Z,99800.66
2022-09-17T07:29:06.091Z,99794.13
2022-09-17T07:33:59.537Z,99813.09
2022-09-17T07:38:56.435Z,99870.72
2022-09-17T07:43:49.600Z,99861.69
2022-09-17T07:48:43.028Z,99842.66
2022-09-17T07:53:36.227Z,99837.16
2022-09-17T07:58:34.418Z,99840.34
2022-09-17T08:03:27.826Z,99855.00
2022-09-17T08:08:21.487Z,99861.47
2022-09-17T08:13:14.724Z,99864.69
2022-09-17T08:18:09.278Z,99868.53
2022-09-17T08:23:02.858Z,99852.78
2022-09-17T08:27:56.760Z,99818.84
2022-09-17T08:32:50.082Z,99840.16
2022-09-17T08:37:44.887Z,99843.75
2022-09-17T08:42:43.064Z,99773.97
2022-09-17T08:47:38.656Z,99777.72
2022-09-17T08:53:14.089Z,99855.06
2022-09-17T09:01:00.685Z,99684.13
2022-09-17T09:11:31.161Z,99863.59
2022-09-17T09:16:27.242Z,99863.22
2022-09-17T09:21:27.900Z,99777.03
2022-09-17T09:26:25.332Z,99836.81
2022-09-17T09:31:40.453Z,99875.66
2022-09-17T09:36:35.186Z,99832.53
2022-09-17T09:41:38.017Z,99728.97
2022-09-17T09:46:48.292Z,99792.69
2022-09-17T09:51:53.151Z,99768.44
2022-09-17T09:56:59.388Z,99839.16
2022-09-17T10:01:55.475Z,99788.13
2022-09-17T10:06:51.799Z,99814.06
2022-09-17T10:12:04.207Z,99794.13
2022-09-17T10:17:24.221Z,99846.19
2022-09-17T10:22:27.691Z,99775.88
2022-09-17T10:27:24.458Z,99814.00
2022-09-17T10:32:21.431Z,99858.13
2022-09-17T10:37:35.504Z,99788.41
2022-09-17T10:42:28.923Z,99817.47
2022-09-17T10:47:26.614Z,99826.16
2022-09-17T10:52:26.742Z,99828.47
2022-09-17T10:57:33.271Z,99865.44
2022-09-17T11:03:04.797Z,99874.88
2022-09-17T11:08:26.688Z,99774.34
2022-09-17T11:13:27.634Z,99871.53
2022-09-17T11:18:40.792Z,99866.88
2022-09-17T11:23:52.293Z,99892.34
2022-09-17T11:28:59.057Z,99899.09
2022-09-17T11:34:29.063Z,99833.09
2022-09-17T11:39:28.673Z,99880.53
2022-09-17T11:44:27.852Z,99924.88
2022-09-17T11:49:28.908Z,99980.34
2022-09-17T11:54:29.024Z,99917.22
2022-09-17T11:59:31.721Z,99966.84
2022-09-17T12:04:42.480Z,99862.44
2022-09-17T12:09:39.980Z,99924.41
2022-09-17T12:15:06.319Z,99987.88
2022-09-17T12:20:07.749Z,99934.03
2022-09-17T12:25:05.091Z,99892.69
2022-09-17T12:30:11.219Z,99867.56
2022-09-17T12:35:16.211Z,99913.22
2022-09-17T12:40:22.996Z,99842.06
2022-09-17T12:45:29.083Z,99893.59
2022-09-17T12:50:37.683Z,99872.59
2022-09-17T12:56:27.434Z,99774.78
2022-09-17T13:01:29.910Z,99859.78
2022-09-17T13:06:51.504Z,99875.72
2022-09-17T13:12:11.355Z,99844.72
2022-09-17T13:17:09.646Z,99761.75
2022-09-17T13:22:07.360Z,99848.97
2022-09-17T13:27:03.158Z,99845.84
2022-09-17T13:31:58.707Z,99824.66
2022-09-17T13:36:58.082Z,99705.28
2022-09-17T13:42:05.893Z,99695.94
2022-09-17T13:47:20.288Z,99758.91
2022-09-17T13:52:16.407Z,99756.44
2022-09-17T13:57:15.991Z,99759.13
2022-09-17T14:02:37.794Z,99698.75
2022-09-17T14:07:52.407Z,99736.91
2022-09-17T14:12:55.612Z,99699.22
2022-09-17T14:17:54.509Z,99697.84
2022-09-17T14:23:04.559Z,99680.41
2022-09-17T14:28:08.414Z,99654.19
2022-09-17T14:33:09.852Z,99649.22
2022-09-17T14:38:12.774Z,99634.63
2022-09-17T14:43:07.159Z,99681.78
2022-09-17T14:48:29.827Z,99665.69
2022-09-17T14:53:25.767Z,99711.25
2022-09-17T14:58:42.273Z,99704.13
2022-09-17T15:03:36.499Z,99702.56
2022-09-17T15:08:32.130Z,99733.34
2022-09-17T15:13:29.131Z,99734.94
2022-09-17T15:18:31.979Z,99675.03
2022-09-17T15:23:29.059Z,99692.84
2022-09-17T15:28:31.641Z,99732.81
2022-09-17T15:33:25.835Z,99724.97
2022-09-17T15:38:55.218Z,99684.13
2022-09-17T15:43:54.726Z,99640.19
2022-09-17T15:48:54.525Z,99749.03
2022-09-17T15:53:53.774Z,99724.53
2022-09-17T15:58:59.200Z,99613.09
2022-09-17T16:04:33.528Z,99609.47
2022-09-17T16:09:55.135Z,99725.06
2022-09-17T16:14:57.192Z,99698.63
2022-09-17T16:19:50.358Z,99594.69
2022-09-17T16:24:43.682Z,99584.72
2022-09-17T16:29:40.027Z,99702.13
2022-09-17T16:34:36.469Z,99705.63
2022-09-17T16:39:29.778Z,99713.84
2022-09-17T16:44:22.923Z,99623.31
2022-09-17T16:49:16.185Z,99592.34
2022-09-17T16:54:20.193Z,99701.25
2022-09-17T16:59:13.396Z,99683.50
2022-09-17T17:04:06.728Z,99703.56
2022-09-17T17:09:03.590Z,99698.28
2022-09-17T17:13:58.197Z,99650.50
2022-09-17T17:18:53.404Z,99699.50
2022-09-17T17:23:49.186Z,99607.31
2022-09-17T17:28:44.952Z,99699.91
2022-09-17T17:33:39.770Z,99675.19
2022-09-17T17:38:35.433Z,99641.28
2022-09-17T17:43:28.713Z,99604.16
2022-09-17T17:48:21.835Z,99506.59
2022-09-17T17:53:20.282Z,99523.72
2022-09-17T17:58:13.506Z,99600.91
2022-09-17T18:03:06.773Z,99606.25
2022-09-17T18:08:00.010Z,99533.91
2022-09-17T18:12:55.150Z,99660.31
2022-09-17T18:17:53.596Z,99647.72
2022-09-17T18:22:48.079Z,99686.47
2022-09-17T18:27:47.611Z,99583.47
2022-09-17T18:32:42.910Z,99601.03
2022-09-17T18:37:36.183Z,99667.69
2022-09-17T18:42:29.402Z,99686.06
2022-09-17T18:47:24.190Z,99690.56
2022-09-17T18:52:20.224Z,99650.38
2022-09-17T18:57:13.487Z,99614.50
2022-09-17T19:02:07.075Z,99690.19
2022-09-17T19:07:02.325Z,99690.38
2022-09-17T19:11:55.781Z,99638.75
2022-09-17T19:16:52.153Z,99658.31
2022-09-17T19:21:45.646Z,99599.78
2022-09-17T19:26:43.645Z,99501.28
2022-09-17T19:31:39.138Z,99589.31
2022-09-17T19:36:32.496Z,99502.47
2022-09-17T19:41:26.426Z,99466.59
2022-09-17T19:46:24.647Z,99399.00
2022-09-17T19:51:20.970Z,99514.63
2022-09-17T19:56:16.395Z,99540.97
2022-09-17T20:01:10.038Z,99487.19
2022-09-17T20:06:08.308Z,99492.25
2022-09-17T20:11:08.133Z,99532.41
2022-09-17T20:16:05.181Z,99523.22
2022-09-17T20:20:58.663Z,99441.47
2022-09-17T20:25:56.876Z,99442.13
2022-09-17T20:30:50.269Z,99537.72
2022-09-17T20:35:43.462Z,99547.69
2022-09-17T20:40:36.813Z,99465.16
2022-09-17T20:45:31.754Z,99434.88
2022-09-17T20:50:24.991Z,99378.66
2022-09-17T20:55:18.463Z,99518.41
2022-09-17T21:00:19.187Z,99527.31
2022-09-17T21:05:14.129Z,99483.13
2022-09-17T21:10:08.684Z,99512.25
2022-09-17T21:15:02.082Z,99489.84
2022-09-17T21:19:55.357Z,99525.09
2022-09-17T21:24:49.987Z,99486.38
2022-09-17T21:29:43.285Z,99506.75
2022-09-17T21:34:36.518Z,99489.44
2022-09-17T21:39:30.006Z,99471.47
2022-09-17T21:44:24.601Z,99423.66
2022-09-17T21:49:18.540Z,99496.16
2022-09-17T21:54:13.488Z,99491.47
2022-09-17T21:59:08.068Z,99410.22
2022-09-17T22:04:03.322Z,99425.50
2022-09-17T22:08:57.594Z,99415.72
2022-09-17T22:13:54.805Z,99485.78
2022-09-17T22:18:50.022Z,99456.25
2022-09-17T22:23:44.891Z,99405.34
2022-09-17T22:28:38.188Z,99479.69
2022-09-17T22:33:34.005Z,99466.25
2022-09-17T22:38:27.779Z,99446.47
2022-09-17T22:43:22.664Z,99317.56
2022-09-17T22:48:15.880Z,99455.84
2022-09-17T22:53:09.048Z,99438.53
2022-09-17T22:58:02.388Z,99453.00
2022-09-17T23:02:57.070Z,99438.50
2022-09-17T23:07:50.277Z,99420.81
2022-09-17T23:12:43.492Z,99391.66
2022-09-17T23:17:36.823Z,99393.75
2022-09-17T23:22:31.510Z,99417.53
2022-09-17T23:27:26.746Z,99434.25
2022-09-17T23:32:20.134Z,99425.91
2022-09-17T23:37:13.349Z,99366.84
2022-09-17T23:42:08.129Z,99406.78
2022-09-17T23:47:01.284Z,99390.06
2022-09-17T23:51:54.471Z,99436.09
2022-09-17T23:56:47.698Z,99443.22
